Time;durP1;ratioP1;P1;durP2;ratioP2;P2;SDS_P1;SDS_P2;PMS_P1;PMS_P2;Temp;Humidity;BMP_temperature;BMP_pressure;BME280_temperature;BME280_humidity;BME280_pressure;Samples;Min_cycle;Max_cycle;Signal;HPM_P1;HPM_P2
2022/06/28 00:00:37;;;;;;;6.93;5.18;;;;;;;;;;6264373;28;20039;-80
2022/06/28 00:03:37;;;;;;;9.87;6.40;;;;;;;;;;6249168;28;20638;-80
2022/06/28 00:06:37;;;;;;;10.93;5.97;;;;;;;;;;6266977;28;20107;-80
2022/06/28 00:09:38;;;;;;;8.20;5.73;;;;;;;;;;6266116;28;20104;-80
2022/06/28 00:12:38;;;;;;;8.93;5.75;;;;;;;;;;6267228;28;20021;-80
2022/06/28 00:18:57;;;;;;;12.00;5.45;;;;;;;;;;6266719;28;20033;-80
2022/06/28 00:21:58;;;;;;;8.80;5.63;;;;;;;;;;6265891;28;20381;-80
2022/06/28 00:24:58;;;;;;;11.73;5.87;;;;;;;;;;6266035;28;20027;-80
2022/06/28 00:27:58;;;;;;;9.82;5.57;;;;;;;;;;6246954;28;20021;-80
2022/06/28 00:30:58;;;;;;;11.67;5.57;;;;;;;;;;6259811;28;20041;-80
2022/06/28 00:33:59;;;;;;;7.97;5.77;;;;;;;;;;6291686;28;20024;-80
2022/06/28 00:36:59;;;;;;;8.47;5.93;;;;;;;;;;6288762;28;20516;-80
2022/06/28 00:39:59;;;;;;;9.70;6.50;;;;;;;;;;6284529;28;20021;-80
2022/06/28 00:42:59;;;;;;;9.70;6.13;;;;;;;;;;6287916;28;20100;-80
2022/06/28 00:46:00;;;;;;;8.37;5.43;;;;;;;;;;6288731;28;20430;-80
2022/06/28 00:49:01;;;;;;;7.63;5.87;;;;;;;;;;6288348;28;20383;-80
2022/06/28 00:52:02;;;;;;;10.20;6.10;;;;;;;;;;6279645;28;20024;-79
2022/06/28 00:55:03;;;;;;;11.45;6.15;;;;;;;;;;6285598;28;20016;-80
2022/06/28 00:58:03;;;;;;;8.60;6.00;;;;;;;;;;6284200;28;20020;-79
2022/06/28 01:01:04;;;;;;;14.40;6.80;;;;;;;;;;6284704;28;20020;-80
2022/06/28 01:04:04;;;;;;;8.03;5.47;;;;;;;;;;6290337;28;20581;-80
2022/06/28 01:07:05;;;;;;;12.97;5.93;;;;;;;;;;6283518;28;20478;-79
2022/06/28 01:10:06;;;;;;;12.00;5.17;;;;;;;;;;6288669;28;20013;-80
2022/06/28 01:13:07;;;;;;;8.43;5.90;;;;;;;;;;6289969;28;20013;-80
2022/06/28 01:16:07;;;;;;;8.90;6.07;;;;;;;;;;6291517;28;20525;-80
2022/06/28 01:19:07;;;;;;;12.90;6.23;;;;;;;;;;6287690;28;20013;-80
2022/06/28 01:22:09;;;;;;;10.03;6.47;;;;;;;;;;6285099;28;20103;-80
2022/06/28 01:25:10;;;;;;;10.55;6.15;;;;;;;;;;6286859;28;20024;-80
2022/06/28 01:28:10;;;;;;;11.03;6.57;;;;;;;;;;6275184;28;20048;-80
2022/06/28 01:31:11;;;;;;;9.80;5.70;;;;;;;;;;6277988;28;20149;-79
2022/06/28 01:34:13;;;;;;;12.60;5.57;;;;;;;;;;6263890;28;20162;-79
2022/06/28 01:37:13;;;;;;;;;;;;;;;;;;6264088;28;20032;-79
2022/06/28 01:40:13;;;;;;;7.80;5.88;;;;;;;;;;6245369;28;19938;-80
2022/06/28 01:43:13;;;;;;;11.27;5.30;;;;;;;;;;6261566;28;20021;-80
2022/06/28 01:46:13;;;;;;;13.10;6.68;;;;;;;;;;6264907;28;20041;-80
2022/06/28 01:49:14;;;;;;;9.77;5.87;;;;;;;;;;6245649;28;20378;-80
2022/06/28 01:52:15;;;;;;;10.70;6.70;;;;;;;;;;6240170;28;20013;-80
2022/06/28 01:55:15;;;;;;;11.70;6.37;;;;;;;;;;6240815;28;20558;-79
2022/06/28 01:58:15;;;;;;;10.25;5.95;;;;;;;;;;6251527;28;20255;-79
2022/06/28 02:01:16;;;;;;;11.20;7.37;;;;;;;;;;6237550;28;20016;-80
2022/06/28 02:04:17;;;;;;;9.73;6.07;;;;;;;;;;6261388;28;20020;-80
2022/06/28 02:07:17;;;;;;;7.77;5.97;;;;;;;;;;6245357;28;20711;-80
2022/06/28 02:10:18;;;;;;;11.20;6.43;;;;;;;;;;6263131;28;20159;-79
2022/06/28 02:13:18;;;;;;;9.97;5.60;;;;;;;;;;6243677;28;20108;-79
2022/06/28 02:16:18;;;;;;;12.33;6.70;;;;;;;;;;6263577;28;20020;-80
2022/06/28 02:19:18;;;;;;;10.70;6.17;;;;;;;;;;6262448;28;20495;-79
2022/06/28 02:22:18;;;;;;;12.10;6.70;;;;;;;;;;6262659;28;20013;-79
2022/06/28 02:25:19;;;;;;;11.17;6.13;;;;;;;;;;6257796;28;20014;-79
2022/06/28 02:28:19;;;;;;;10.43;6.00;;;;;;;;;;6261163;28;20013;-79
2022/06/28 02:31:19;;;;;;;12.02;6.60;;;;;;;;;;6261566;28;20037;-79
2022/06/28 02:40:57;;;;;;;11.35;7.25;;;;;;;;;;6277996;28;20090;-78
2022/06/28 02:43:58;;;;;;;14.50;6.80;;;;;;;;;;6287794;28;20130;-79
2022/06/28 02:46:58;;;;;;;10.53;7.17;;;;;;;;;;6286774;28;20027;-79
2022/06/28 02:49:58;;;;;;;11.80;7.22;;;;;;;;;;6283820;28;20018;-79
2022/06/28 02:52:59;;;;;;;9.20;6.30;;;;;;;;;;6286148;28;20016;-79
2022/06/28 02:55:59;;;;;;;17.07;7.70;;;;;;;;;;6285887;28;20012;-79
2022/06/28 02:58:59;;;;;;;9.83;7.63;;;;;;;;;;6287017;28;20017;-80
2022/06/28 03:01:59;;;;;;;11.83;7.23;;;;;;;;;;6284930;28;20024;-79
2022/06/28 03:05:00;;;;;;;11.60;6.80;;;;;;;;;;6288675;28;20016;-79
2022/06/28 03:08:00;;;;;;;13.65;6.70;;;;;;;;;;6285714;28;20017;-79
2022/06/28 03:11:00;;;;;;;12.30;7.27;;;;;;;;;;6287533;28;20020;-78
2022/06/28 03:14:00;;;;;;;12.40;7.03;;;;;;;;;;6282058;28;20017;-79
2022/06/28 03:17:01;;;;;;;14.87;8.03;;;;;;;;;;6288377;28;20385;-79
2022/06/28 03:20:01;;;;;;;11.23;7.20;;;;;;;;;;6288328;28;20097;-79
2022/06/28 03:23:02;;;;;;;10.93;7.57;;;;;;;;;;6292543;28;20017;-79
2022/06/28 03:26:02;;;;;;;16.83;7.73;;;;;;;;;;6293901;28;20037;-79
2022/06/28 03:29:02;;;;;;;15.03;7.30;;;;;;;;;;6292991;28;20029;-79
2022/06/28 03:32:02;;;;;;;19.30;9.40;;;;;;;;;;6273654;28;20496;-79
2022/06/28 03:35:03;;;;;;;24.57;9.97;;;;;;;;;;6248581;28;20079;-78
2022/06/28 03:38:03;;;;;;;20.53;9.27;;;;;;;;;;6267348;28;20356;-78
2022/06/28 03:41:03;;;;;;;17.50;7.60;;;;;;;;;;6262531;28;20481;-80
2022/06/28 03:44:03;;;;;;;13.53;8.07;;;;;;;;;;6267282;28;20052;-79
2022/06/28 03:47:04;;;;;;;15.97;7.40;;;;;;;;;;6249322;28;20108;-79
2022/06/28 03:50:04;;;;;;;20.63;8.40;;;;;;;;;;6268257;28;20514;-79
2022/06/28 03:53:05;;;;;;;20.30;8.23;;;;;;;;;;6266706;28;20013;-79
2022/06/28 03:56:05;;;;;;;14.87;7.43;;;;;;;;;;6246386;28;20017;-79
2022/06/28 03:59:05;;;;;;;13.03;7.80;;;;;;;;;;6267064;28;20028;-79
2022/06/28 04:02:06;;;;;;;12.63;8.37;;;;;;;;;;6268589;28;20017;-79
2022/06/28 04:05:06;;;;;;;12.13;8.40;;;;;;;;;;6250083;28;20554;-79
2022/06/28 04:08:08;;;;;;;16.27;9.10;;;;;;;;;;6249340;28;20070;-80
2022/06/28 04:11:14;;;;;;;18.02;8.73;;;;;;;;;;6247874;28;20445;-79
2022/06/28 04:14:14;;;;;;;13.52;9.02;;;;;;;;;;6273487;28;20017;-79
2022/06/28 04:17:14;;;;;;;13.67;8.77;;;;;;;;;;6257759;28;20559;-79
2022/06/28 04:20:15;;;;;;;13.97;7.40;;;;;;;;;;6248728;28;20158;-79
2022/06/28 04:23:15;;;;;;;14.18;7.95;;;;;;;;;;6244798;28;20020;-80
2022/06/28 04:26:15;;;;;;;11.03;7.23;;;;;;;;;;6261110;28;20025;-80
2022/06/28 04:29:15;;;;;;;11.77;7.67;;;;;;;;;;6240983;28;20074;-80
2022/06/28 04:32:16;;;;;;;11.80;7.60;;;;;;;;;;6264757;28;20630;-79
2022/06/28 04:35:16;;;;;;;13.03;9.30;;;;;;;;;;6265441;28;20009;-79
2022/06/28 04:38:16;;;;;;;17.33;7.77;;;;;;;;;;6248104;28;20100;-80
2022/06/28 04:41:17;;;;;;;12.97;7.90;;;;;;;;;;6254610;28;20055;-80
2022/06/28 04:44:17;;;;;;;14.57;7.40;;;;;;;;;;6242024;28;20121;-80
2022/06/28 04:47:17;;;;;;;11.13;7.35;;;;;;;;;;6242815;28;20036;-80
2022/06/28 04:50:17;;;;;;;16.70;7.47;;;;;;;;;;6253704;28;20505;-80
2022/06/28 04:53:18;;;;;;;14.87;7.80;;;;;;;;;;6260883;28;20070;-80
2022/06/28 04:56:18;;;;;;;12.70;7.40;;;;;;;;;;6247770;28;20115;-80
2022/06/28 04:59:18;;;;;;;10.73;7.33;;;;;;;;;;6267993;28;20111;-80
2022/06/28 05:02:18;;;;;;;10.63;7.73;;;;;;;;;;6269180;28;20023;-80
2022/06/28 05:05:19;;;;;;;10.70;6.93;;;;;;;;;;6267318;28;20024;-80
2022/06/28 05:08:20;;;;;;;12.70;8.25;;;;;;;;;;6264218;28;20017;-80
2022/06/28 05:11:20;;;;;;;11.87;8.73;;;;;;;;;;6262849;28;20029;-81
2022/06/28 05:14:20;;;;;;;11.40;8.40;;;;;;;;;;6289774;28;20033;-79
2022/06/28 05:17:20;;;;;;;12.83;9.00;;;;;;;;;;6270373;28;20025;-81
2022/06/28 05:20:20;;;;;;;12.23;7.93;;;;;;;;;;6261947;28;20012;-80
2022/06/28 05:23:21;;;;;;;12.93;8.73;;;;;;;;;;6263211;28;20492;-80
2022/06/28 05:26:21;;;;;;;12.87;8.47;;;;;;;;;;6255214;28;20020;-80
2022/06/28 05:29:21;;;;;;;13.40;8.37;;;;;;;;;;6264010;28;20083;-80
2022/06/28 05:32:21;;;;;;;12.87;7.57;;;;;;;;;;6253130;28;20425;-80
2022/06/28 05:35:22;;;;;;;15.40;8.40;;;;;;;;;;6237432;28;20013;-80
2022/06/28 05:38:22;;;;;;;12.80;7.50;;;;;;;;;;6262294;28;20267;-80
2022/06/28 05:41:22;;;;;;;11.63;7.17;;;;;;;;;;6239542;28;20679;-80
2022/06/28 05:44:22;;;;;;;9.60;7.47;;;;;;;;;;6241475;28;20233;-80
2022/06/28 05:47:22;;;;;;;;;;;;;;;;;;6252484;28;20025;-80
2022/06/28 05:50:23;;;;;;;11.25;6.97;;;;;;;;;;6248807;28;19951;-80
2022/06/28 05:53:24;;;;;;;12.07;6.63;;;;;;;;;;6264279;28;20028;-80
2022/06/28 05:56:24;;;;;;;9.73;7.03;;;;;;;;;;6237305;28;20034;-81
2022/06/28 05:59:25;;;;;;;11.70;6.40;;;;;;;;;;6256728;28;20013;-80
2022/06/28 06:02:28;;;;;;;7.45;6.20;;;;;;;;;;6262151;28;20012;-80
2022/06/28 06:05:28;;;;;;;11.30;7.35;;;;;;;;;;6244425;28;20424;-81
2022/06/28 06:08:28;;;;;;;9.07;6.40;;;;;;;;;;6241749;28;20083;-80
2022/06/28 06:11:29;;;;;;;9.93;6.47;;;;;;;;;;6276658;28;20078;-80
2022/06/28 06:14:29;;;;;;;10.05;6.30;;;;;;;;;;6251892;28;20021;-82
2022/06/28 06:17:29;;;;;;;15.03;7.00;;;;;;;;;;6261735;28;20052;-80
2022/06/28 06:20:29;;;;;;;15.90;7.70;;;;;;;;;;6227160;28;20028;-81
2022/06/28 06:23:30;;;;;;;12.35;6.47;;;;;;;;;;6220868;28;20155;-81
2022/06/28 06:26:31;;;;;;;14.80;6.87;;;;;;;;;;6237093;28;20031;-81
2022/06/28 06:29:31;;;;;;;11.23;6.75;;;;;;;;;;6255828;28;20527;-81
2022/06/28 06:32:31;;;;;;;14.70;7.10;;;;;;;;;;6273621;28;20037;-81
2022/06/28 06:35:31;;;;;;;11.70;7.47;;;;;;;;;;6280197;28;20016;-81
2022/06/28 06:38:32;;;;;;;12.60;7.10;;;;;;;;;;6279466;28;20020;-81
2022/06/28 06:41:32;;;;;;;14.13;6.90;;;;;;;;;;6279939;28;20020;-81
2022/06/28 06:44:32;;;;;;;14.27;7.53;;;;;;;;;;6281464;28;20108;-81
2022/06/28 06:47:32;;;;;;;12.13;5.80;;;;;;;;;;6278236;28;20104;-81
2022/06/28 06:50:32;;;;;;;12.23;6.23;;;;;;;;;;6282931;28;20035;-81
2022/06/28 06:53:33;;;;;;;11.80;6.03;;;;;;;;;;6287496;28;20023;-80
2022/06/28 06:56:33;;;;;;;16.90;6.57;;;;;;;;;;6284607;28;20021;-81
2022/06/28 06:59:33;;;;;;;10.15;6.40;;;;;;;;;;6281809;28;20373;-81
2022/06/28 07:02:38;;;;;;;11.87;5.77;;;;;;;;;;6288900;28;20028;-81
2022/06/28 07:05:38;;;;;;;14.23;5.00;;;;;;;;;;6281348;28;20307;-81
2022/06/28 07:08:38;;;;;;;7.77;5.10;;;;;;;;;;6287525;28;20022;-81
2022/06/28 07:11:39;;;;;;;9.95;4.78;;;;;;;;;;6291765;28;20016;-81
2022/06/28 07:14:39;;;;;;;11.97;6.00;;;;;;;;;;6279581;28;20013;-81
2022/06/28 07:17:39;;;;;;;11.83;5.10;;;;;;;;;;6285704;28;20065;-81
2022/06/28 07:20:41;;;;;;;10.53;5.03;;;;;;;;;;6294114;28;20027;-82
2022/06/28 07:23:41;;;;;;;9.02;4.53;;;;;;;;;;6272223;28;20108;-81
2022/06/28 07:26:41;;;;;;;7.50;5.00;;;;;;;;;;6283729;28;20032;-81
2022/06/28 07:29:42;;;;;;;14.67;4.93;;;;;;;;;;6295594;28;20256;-81
2022/06/28 07:32:42;;;;;;;11.98;4.97;;;;;;;;;;6275238;28;20052;-81
2022/06/28 07:35:44;;;;;;;7.83;4.47;;;;;;;;;;6290462;28;20017;-81
2022/06/28 07:38:44;;;;;;;10.60;4.45;;;;;;;;;;6277511;28;20017;-81
2022/06/28 07:41:44;;;;;;;8.90;4.30;;;;;;;;;;6287205;28;20076;-80
2022/06/28 07:44:44;;;;;;;7.53;4.10;;;;;;;;;;6285821;28;20020;-80
2022/06/28 07:47:47;;;;;;;9.77;5.10;;;;;;;;;;6279389;28;20020;-80
2022/06/28 07:54:06;;;;;;;6.55;4.38;;;;;;;;;;6291512;28;20029;-79
2022/06/28 07:57:06;;;;;;;12.27;4.77;;;;;;;;;;6288544;28;20131;-80
2022/06/28 08:00:07;;;;;;;7.43;5.33;;;;;;;;;;6284392;28;20045;-80
2022/06/28 08:03:07;;;;;;;6.38;5.13;;;;;;;;;;6287882;28;20024;-80
2022/06/28 08:06:07;;;;;;;7.77;6.00;;;;;;;;;;6287853;28;20083;-80
2022/06/28 08:09:08;;;;;;;6.73;5.57;;;;;;;;;;6293691;28;20009;-80
2022/06/28 08:12:09;;;;;;;9.93;5.60;;;;;;;;;;6290262;28;20015;-80
2022/06/28 08:15:13;;;;;;;8.23;5.88;;;;;;;;;;6284908;28;20037;-80
2022/06/28 08:18:13;;;;;;;8.82;5.93;;;;;;;;;;6291333;28;20023;-81
2022/06/28 08:21:13;;;;;;;6.73;5.67;;;;;;;;;;6296678;28;20025;-81
2022/06/28 08:24:13;;;;;;;7.43;5.27;;;;;;;;;;6297718;28;20012;-81
2022/06/28 08:27:14;;;;;;;10.07;6.27;;;;;;;;;;6294097;28;20143;-81
2022/06/28 08:30:14;;;;;;;11.20;5.93;;;;;;;;;;6283273;28;20060;-80
2022/06/28 08:33:15;;;;;;;9.63;5.97;;;;;;;;;;6252255;28;20115;-81
2022/06/28 08:36:15;;;;;;;10.67;6.83;;;;;;;;;;6239133;28;20255;-81
2022/06/28 08:39:15;;;;;;;9.87;5.97;;;;;;;;;;6248105;28;20100;-81
2022/06/28 08:42:18;;;;;;;11.20;5.93;;;;;;;;;;6241392;28;20025;-81
2022/06/28 08:45:19;;;;;;;8.32;5.53;;;;;;;;;;6248672;28;20013;-80
2022/06/28 08:48:27;;;;;;;9.68;6.10;;;;;;;;;;6266002;28;20518;-81
2022/06/28 08:51:30;;;;;;;8.20;5.15;;;;;;;;;;6260743;28;20110;-81
2022/06/28 08:54:31;;;;;;;8.25;4.60;;;;;;;;;;6242970;28;20059;-81
2022/06/28 08:57:32;;;;;;;7.57;4.72;;;;;;;;;;6235820;28;20025;-81
2022/06/28 09:00:32;;;;;;;8.32;5.07;;;;;;;;;;6247813;28;20021;-81
2022/06/28 09:03:33;;;;;;;9.80;5.90;;;;;;;;;;6262654;28;20032;-81
2022/06/28 09:07:11;;;;;;;15.25;6.13;;;;;;;;;;6246523;28;20017;-81
2022/06/28 09:10:15;;;;;;;11.35;5.90;;;;;;;;;;6280970;28;20022;-82
2022/06/28 09:13:15;;;;;;;12.60;6.30;;;;;;;;;;6271815;28;20009;-81
2022/06/28 09:16:19;;;;;;;8.30;6.10;;;;;;;;;;6272077;28;20632;-82
2022/06/28 09:19:35;;;;;;;9.77;6.07;;;;;;;;;;6252432;28;20024;-81
2022/06/28 09:22:40;;;;;;;11.57;6.72;;;;;;;;;;6253083;28;20013;-82
2022/06/28 09:25:40;;;;;;;13.57;7.13;;;;;;;;;;6249742;28;20101;-81
2022/06/28 09:28:45;;;;;;;9.70;6.77;;;;;;;;;;6247606;28;20021;-81
2022/06/28 09:31:46;;;;;;;12.68;6.97;;;;;;;;;;6259847;28;20464;-81
2022/06/28 09:34:53;;;;;;;16.13;8.73;;;;;;;;;;6248135;28;20057;-81
2022/06/28 09:37:56;;;;;;;10.95;6.57;;;;;;;;;;6246308;28;20024;-81
2022/06/28 09:40:57;;;;;;;9.40;6.85;;;;;;;;;;6254310;28;20112;-81
2022/06/28 09:43:59;;;;;;;19.60;7.57;;;;;;;;;;6261560;28;20033;-81
2022/06/28 09:46:59;;;;;;;9.45;7.10;;;;;;;;;;6246973;28;20110;-81
2022/06/28 09:49:59;;;;;;;14.80;8.13;;;;;;;;;;6261763;28;20037;-81
2022/06/28 09:53:01;;;;;;;10.32;4.75;;;;;;;;;;6239561;28;20562;-80
2022/06/28 09:56:03;;;;;;;9.38;5.75;;;;;;;;;;6239404;28;20168;-81
2022/06/28 09:59:04;;;;;;;6.63;4.57;;;;;;;;;;6261009;28;20421;-81
2022/06/28 10:02:10;;;;;;;12.10;5.55;;;;;;;;;;6256348;28;20025;-81
2022/06/28 10:05:10;;;;;;;9.32;5.20;;;;;;;;;;6247315;28;20589;-81
2022/06/28 10:08:11;;;;;;;7.67;5.47;;;;;;;;;;6251291;28;20025;-81
2022/06/28 10:15:08;;;;;;;29.48;6.28;;;;;;;;;;6212676;28;20108;-81
2022/06/28 10:18:19;;;;;;;9.35;5.95;;;;;;;;;;6246195;28;20031;-80
2022/06/28 10:21:39;;;;;;;13.48;7.03;;;;;;;;;;6279891;28;20018;-81
2022/06/28 10:24:55;;;;;;;16.37;7.70;;;;;;;;;;6229174;28;20036;-80
2022/06/28 10:27:56;;;;;;;10.18;5.82;;;;;;;;;;6239230;28;20024;-80
2022/06/28 10:31:15;;;;;;;13.27;7.75;;;;;;;;;;6256467;28;20083;-80
2022/06/28 10:34:22;;;;;;;12.07;8.53;;;;;;;;;;6251675;28;20057;-80
2022/06/28 10:37:25;;;;;;;12.27;8.65;;;;;;;;;;6253327;28;20013;-80
2022/06/28 10:40:28;;;;;;;16.30;9.23;;;;;;;;;;6257050;28;20017;-81
2022/06/28 10:43:29;;;;;;;22.80;9.57;;;;;;;;;;6236402;28;20020;-81
2022/06/28 10:46:29;;;;;;;;;;;;;;;;;;6247493;28;20078;-81
2022/06/28 10:49:44;;;;;;;14.30;8.23;;;;;;;;;;6266462;28;20292;-81
2022/06/28 10:52:59;;;;;;;13.57;8.38;;;;;;;;;;6240501;28;20100;-81
2022/06/28 10:56:14;;;;;;;15.25;8.27;;;;;;;;;;6246017;28;20021;-81
2022/06/28 10:59:15;;;;;;;12.38;8.50;;;;;;;;;;6250458;28;20104;-81
2022/06/28 11:02:16;;;;;;;16.63;8.20;;;;;;;;;;6241421;28;20029;-81
2022/06/28 11:05:20;;;;;;;7.90;6.20;;;;;;;;;;6250762;28;20499;-81
2022/06/28 11:08:35;;;;;;;15.60;8.27;;;;;;;;;;6256620;28;20021;-81
2022/06/28 11:11:56;;;;;;;15.07;8.15;;;;;;;;;;6232397;28;20031;-81
2022/06/28 11:14:57;;;;;;;10.70;8.07;;;;;;;;;;6252794;28;20079;-81
2022/06/28 11:17:58;;;;;;;11.43;6.50;;;;;;;;;;6248534;28;20148;-81
2022/06/28 11:20:59;;;;;;;;;;;;;;;;;;6243131;28;20536;-80
2022/06/28 11:23:59;;;;;;;11.35;6.28;;;;;;;;;;6256818;28;20408;-80
2022/06/28 11:27:21;;;;;;;11.20;6.10;;;;;;;;;;6251449;28;20074;-81
2022/06/28 11:30:27;;;;;;;12.25;5.15;;;;;;;;;;6255320;28;20265;-80
2022/06/28 11:33:31;;;;;;;12.13;4.03;;;;;;;;;;6255613;28;20083;-81
2022/06/28 11:36:31;;;;;;;7.00;2.13;;;;;;;;;;6259475;28;20048;-80
2022/06/28 11:39:32;;;;;;;4.55;1.83;;;;;;;;;;6217086;28;20423;-81
2022/06/28 11:42:32;;;;;;;3.37;1.90;;;;;;;;;;6253416;28;20589;-80
2022/06/28 11:45:33;;;;;;;4.97;1.73;;;;;;;;;;6266059;28;20054;-80
2022/06/28 11:48:34;;;;;;;3.35;1.92;;;;;;;;;;6267489;28;20013;-81
2022/06/28 11:51:34;;;;;;;2.73;1.80;;;;;;;;;;6242390;28;20028;-81
2022/06/28 11:54:34;;;;;;;6.30;2.23;;;;;;;;;;6260588;28;20013;-81
2022/06/28 11:57:34;;;;;;;7.90;2.73;;;;;;;;;;6242953;28;20507;-81
2022/06/28 12:00:34;;;;;;;17.07;5.27;;;;;;;;;;6265088;28;20069;-80
2022/06/28 12:03:53;;;;;;;6.37;2.67;;;;;;;;;;6250084;28;20071;-81
2022/06/28 12:06:53;;;;;;;5.05;2.58;;;;;;;;;;6250719;28;20013;-81
2022/06/28 12:09:54;;;;;;;8.23;2.20;;;;;;;;;;6263886;28;20036;-80
2022/06/28 12:12:55;;;;;;;4.73;2.03;;;;;;;;;;6268199;28;20086;-80
2022/06/28 12:15:55;;;;;;;4.22;2.40;;;;;;;;;;6269098;28;20066;-80
2022/06/28 12:18:56;;;;;;;2.47;1.70;;;;;;;;;;6247299;28;20031;-80
2022/06/28 12:22:07;;;;;;;3.63;2.10;;;;;;;;;;6256578;28;20480;-80
2022/06/28 12:25:11;;;;;;;8.73;2.20;;;;;;;;;;6257060;28;20099;-80
2022/06/28 12:28:11;;;;;;;9.13;2.30;;;;;;;;;;6247618;28;20101;-80
2022/06/28 12:31:12;;;;;;;16.13;3.50;;;;;;;;;;6263494;28;20041;-80
2022/06/28 12:34:14;;;;;;;6.63;3.73;;;;;;;;;;6298877;28;20104;-81
2022/06/28 12:37:14;;;;;;;11.38;3.30;;;;;;;;;;6281924;28;20032;-81
2022/06/28 12:40:15;;;;;;;8.63;2.43;;;;;;;;;;6285321;28;20069;-81
2022/06/28 12:43:15;;;;;;;8.17;2.77;;;;;;;;;;6270334;28;20271;-81
2022/06/28 12:46:15;;;;;;;61.33;7.30;;;;;;;;;;6284683;28;20071;-81
2022/06/28 12:49:15;;;;;;;23.93;3.93;;;;;;;;;;6281729;28;20021;-80
2022/06/28 12:52:15;;;;;;;4.83;3.30;;;;;;;;;;6282488;28;20040;-80
2022/06/28 12:55:16;;;;;;;13.27;4.97;;;;;;;;;;6303473;28;20044;-80
2022/06/28 12:58:16;;;;;;;6.97;3.70;;;;;;;;;;6309565;28;20046;-80
2022/06/28 13:01:16;;;;;;;6.90;4.00;;;;;;;;;;6300267;28;20717;-81
2022/06/28 13:04:17;;;;;;;10.20;4.77;;;;;;;;;;6290058;28;20440;-81
2022/06/28 13:07:20;;;;;;;7.50;4.77;;;;;;;;;;6290089;28;20028;-81
2022/06/28 13:10:21;;;;;;;6.95;5.05;;;;;;;;;;6284382;28;20117;-80
2022/06/28 13:13:22;;;;;;;11.17;4.70;;;;;;;;;;6286714;28;20354;-81
2022/06/28 13:16:22;;;;;;;;;;;;;;;;;;6281036;28;20040;-80
2022/06/28 13:19:22;;;;;;;9.32;5.75;;;;;;;;;;6279201;28;19904;-81
2022/06/28 13:22:23;;;;;;;8.23;5.30;;;;;;;;;;6281917;28;20024;-81
2022/06/28 13:25:23;;;;;;;8.53;5.40;;;;;;;;;;6284388;28;20048;-81
2022/06/28 13:28:23;;;;;;;7.88;5.78;;;;;;;;;;6288914;28;20690;-81
2022/06/28 13:31:24;;;;;;;14.33;6.17;;;;;;;;;;6268289;28;20096;-81
2022/06/28 13:34:24;;;;;;;9.57;5.83;;;;;;;;;;6255531;28;20029;-81
2022/06/28 13:37:27;;;;;;;6.13;4.83;;;;;;;;;;6257147;28;20031;-80
2022/06/28 13:40:27;;;;;;;9.15;4.60;;;;;;;;;;6244238;28;20032;-79
2022/06/28 13:43:33;;;;;;;13.43;5.63;;;;;;;;;;6278064;28;20027;-80
2022/06/28 13:46:35;;;;;;;10.13;6.45;;;;;;;;;;6260132;28;20024;-81
2022/06/28 13:49:35;;;;;;;;;;;;;;;;;;6246257;28;20024;-80
2022/06/28 13:52:37;;;;;;;7.00;4.87;;;;;;;;;;6257814;28;20313;-81
2022/06/28 13:55:38;;;;;;;7.20;5.10;;;;;;;;;;6242859;28;20086;-81
2022/06/28 13:58:38;;;;;;;5.68;4.57;;;;;;;;;;6245512;28;20013;-81
2022/06/28 14:01:38;;;;;;;7.30;4.53;;;;;;;;;;6240112;28;20528;-81
2022/06/28 14:04:39;;;;;;;6.33;4.90;;;;;;;;;;6271681;28;20071;-81
2022/06/28 14:07:42;;;;;;;8.20;4.03;;;;;;;;;;6254410;28;20093;-81
2022/06/28 14:10:42;;;;;;;9.77;5.57;;;;;;;;;;6247652;28;20470;-81
2022/06/28 14:13:43;;;;;;;7.20;4.67;;;;;;;;;;6257210;28;20062;-81
2022/06/28 14:16:43;;;;;;;18.03;7.40;;;;;;;;;;6235810;28;20067;-81
2022/06/28 14:19:43;;;;;;;19.17;6.80;;;;;;;;;;6246660;28;20263;-81
2022/06/28 14:22:43;;;;;;;;;;;;;;;;;;6248073;28;20564;-80
2022/06/28 14:25:44;;;;;;;14.40;6.78;;;;;;;;;;6248954;28;19905;-80
2022/06/28 14:28:44;;;;;;;10.77;4.87;;;;;;;;;;6246130;28;20028;-81
2022/06/28 14:31:44;;;;;;;8.43;5.07;;;;;;;;;;6264755;28;20291;-80
2022/06/28 14:34:46;;;;;;;4.78;3.92;;;;;;;;;;6265091;28;20217;-80
2022/06/28 14:37:46;;;;;;;17.48;5.30;;;;;;;;;;6260968;28;20098;-81
2022/06/28 14:40:46;;;;;;;6.27;4.83;;;;;;;;;;6246614;28;20021;-80
2022/06/28 14:43:46;;;;;;;;;;;;;;;;;;6240770;28;20017;-81
2022/06/28 14:46:47;;;;;;;5.90;4.63;;;;;;;;;;6245683;28;19909;-81
2022/06/28 14:49:47;;;;;;;6.30;4.63;;;;;;;;;;6267793;28;20032;-81
2022/06/28 14:52:47;;;;;;;4.73;4.30;;;;;;;;;;6249215;28;20039;-79
2022/06/28 14:55:51;;;;;;;5.03;3.60;;;;;;;;;;6240128;28;20108;-80
2022/06/28 14:58:53;;;;;;;5.38;3.67;;;;;;;;;;6243830;28;20097;-80
2022/06/28 15:01:53;;;;;;;6.78;3.85;;;;;;;;;;6259739;28;20546;-80
2022/06/28 15:04:53;;;;;;;7.43;4.03;;;;;;;;;;6251746;28;20036;-81
2022/06/28 15:07:53;;;;;;;4.25;3.63;;;;;;;;;;6242389;28;20033;-79
2022/06/28 15:10:54;;;;;;;6.40;3.63;;;;;;;;;;6266642;28;20033;-79
2022/06/28 15:13:54;;;;;;;6.10;4.10;;;;;;;;;;6262746;28;20264;-80
2022/06/28 15:16:56;;;;;;;7.37;4.07;;;;;;;;;;6259749;28;20056;-79
2022/06/28 15:19:56;;;;;;;7.07;4.30;;;;;;;;;;6227607;28;20389;-80
2022/06/28 15:32:55;;;;;;;5.40;3.85;;;;;;;;;;6259919;28;20045;-79
2022/06/28 15:35:59;;;;;;;6.50;4.65;;;;;;;;;;6268368;28;20029;-81
2022/06/28 15:38:59;;;;;;;5.35;3.95;;;;;;;;;;6251953;28;20021;-79
2022/06/28 15:42:01;;;;;;;6.87;3.70;;;;;;;;;;6237030;28;20053;-80
2022/06/28 15:45:02;;;;;;;3.95;3.47;;;;;;;;;;6235461;28;20351;-79
2022/06/28 15:48:02;;;;;;;7.03;3.85;;;;;;;;;;6259078;28;20021;-80
2022/06/28 15:51:03;;;;;;;6.85;3.03;;;;;;;;;;6242515;28;20063;-79
2022/06/28 15:54:03;;;;;;;4.83;3.13;;;;;;;;;;6233480;28;20041;-79
2022/06/28 15:57:03;;;;;;;5.73;3.20;;;;;;;;;;6248121;28;20374;-79
2022/06/28 16:00:04;;;;;;;7.60;3.47;;;;;;;;;;6237618;28;20021;-81
2022/06/28 16:03:04;;;;;;;;;;;;;;;;;;6241402;28;20029;-81
2022/06/28 16:06:04;;;;;;;8.00;3.50;;;;;;;;;;6236744;28;20293;-79
2022/06/28 16:09:05;;;;;;;;;;;;;;;;;;6237443;28;20542;-79
2022/06/28 16:12:51;;;;;;;3.67;3.00;;;;;;;;;;6244355;28;19919;-79
2022/06/28 16:15:41;;;;;;;5.28;3.58;;;;;;;;;;6251470;28;20126;-79
2022/06/28 16:18:42;;;;;;;6.23;3.03;;;;;;;;;;6266305;28;20435;-79
2022/06/28 16:21:42;;;;;;;4.60;3.33;;;;;;;;;;6246932;28;20408;-79
2022/06/28 16:24:42;;;;;;;5.37;3.23;;;;;;;;;;6267135;28;20103;-79
2022/06/28 16:27:43;;;;;;;3.73;3.17;;;;;;;;;;6258062;28;20024;-79
2022/06/28 16:30:44;;;;;;;4.00;2.95;;;;;;;;;;6232976;28;20055;-78
2022/06/28 16:33:44;;;;;;;5.78;3.38;;;;;;;;;;6264407;28;20020;-79
2022/06/28 16:36:44;;;;;;;3.80;3.33;;;;;;;;;;6248090;28;20027;-79
2022/06/28 16:39:44;;;;;;;5.72;3.22;;;;;;;;;;6266028;28;20479;-79
2022/06/28 16:42:44;;;;;;;8.57;3.43;;;;;;;;;;6262345;28;20111;-79
2022/06/28 16:45:45;;;;;;;6.33;3.20;;;;;;;;;;6263949;28;20028;-79
2022/06/28 16:48:45;;;;;;;6.82;2.80;;;;;;;;;;6246623;28;20032;-79
2022/06/28 16:51:46;;;;;;;4.03;2.47;;;;;;;;;;6243065;28;20044;-79
2022/06/28 16:54:46;;;;;;;7.30;2.50;;;;;;;;;;6232524;28;20099;-80
2022/06/28 16:57:46;;;;;;;4.80;2.47;;;;;;;;;;6267100;28;20075;-79
2022/06/28 17:00:48;;;;;;;4.10;2.97;;;;;;;;;;6264724;28;20009;-79
2022/06/28 17:03:48;;;;;;;3.72;2.40;;;;;;;;;;6250186;28;20025;-79
2022/06/28 17:10:08;;;;;;;4.25;3.08;;;;;;;;;;6262298;28;20342;-79
2022/06/28 17:13:08;;;;;;;6.45;3.50;;;;;;;;;;6262159;28;20079;-79
2022/06/28 17:16:08;;;;;;;6.38;2.85;;;;;;;;;;6253870;28;20022;-79
2022/06/28 17:19:09;;;;;;;3.20;2.45;;;;;;;;;;6254203;28;20012;-79
2022/06/28 17:22:10;;;;;;;3.23;2.47;;;;;;;;;;6240743;28;20021;-79
2022/06/28 17:25:11;;;;;;;4.30;3.05;;;;;;;;;;6239905;28;20045;-79
2022/06/28 17:28:11;;;;;;;7.73;3.43;;;;;;;;;;6259580;28;20025;-79
2022/06/28 17:31:11;;;;;;;7.88;3.95;;;;;;;;;;6253479;28;20568;-79
2022/06/28 17:34:11;;;;;;;10.03;3.40;;;;;;;;;;6237147;28;20110;-80
2022/06/28 17:37:11;;;;;;;5.78;3.47;;;;;;;;;;6255915;28;20062;-80
2022/06/28 17:40:12;;;;;;;5.57;3.13;;;;;;;;;;6259945;28;20445;-80
2022/06/28 17:43:12;;;;;;;4.47;3.07;;;;;;;;;;6245109;28;20017;-80
2022/06/28 17:46:13;;;;;;;4.65;3.22;;;;;;;;;;6246662;28;20088;-80
2022/06/28 17:49:13;;;;;;;7.63;3.40;;;;;;;;;;6256971;28;20024;-80
2022/06/28 17:52:13;;;;;;;4.50;3.23;;;;;;;;;;6260209;28;20020;-81
2022/06/28 17:55:13;;;;;;;7.40;3.63;;;;;;;;;;6272907;28;20018;-80
2022/06/28 17:58:14;;;;;;;4.97;3.33;;;;;;;;;;6277973;28;20214;-80
2022/06/28 18:01:14;;;;;;;5.13;3.47;;;;;;;;;;6277314;28;20033;-80
2022/06/28 18:04:16;;;;;;;6.13;3.47;;;;;;;;;;6254906;28;20032;-80
2022/06/28 18:07:16;;;;;;;7.72;4.47;;;;;;;;;;6254965;28;20025;-81
2022/06/28 18:10:17;;;;;;;8.03;3.77;;;;;;;;;;6276037;28;20017;-81
2022/06/28 18:13:17;;;;;;;8.70;4.43;;;;;;;;;;6269553;28;20469;-81
2022/06/28 18:16:18;;;;;;;6.10;4.20;;;;;;;;;;6262609;28;20109;-81
2022/06/28 18:19:18;;;;;;;8.10;4.20;;;;;;;;;;6260393;28;20025;-80
2022/06/28 18:22:18;;;;;;;5.23;3.70;;;;;;;;;;6251192;28;20021;-80
2022/06/28 18:25:18;;;;;;;5.60;3.93;;;;;;;;;;6268133;28;20013;-80
2022/06/28 18:28:18;;;;;;;5.20;3.40;;;;;;;;;;6244249;28;20021;-80
2022/06/28 18:31:19;;;;;;;6.23;4.20;;;;;;;;;;6263445;28;20079;-81
2022/06/28 18:34:19;;;;;;;6.60;3.67;;;;;;;;;;6247671;28;20040;-80